createdAt,value
2016-08-27T00:00:00.127Z,27.79
2016-08-27T00:00:21.932Z,27.60
2016-08-27T00:00:43.669Z,27.54
2016-08-27T00:01:05.374Z,27.66
2016-08-27T00:01:27.108Z,27.72
2016-08-27T00:01:48.830Z,27.79
2016-08-27T00:02:10.549Z,27.88
2016-08-27T00:02:33.275Z,27.67
2016-08-27T00:02:55.017Z,27.69
2016-08-27T00:03:16.732Z,27.85
2016-08-27T00:03:38.494Z,27.96
2016-08-27T00:04:00.226Z,27.95
2016-08-27T00:04:21.978Z,27.89
2016-08-27T00:04:43.703Z,27.61
2016-08-27T00:05:05.438Z,27.45
2016-08-27T00:05:27.155Z,27.34
2016-08-27T00:05:48.881Z,27.39
2016-08-27T00:06:10.601Z,27.54
2016-08-27T00:06:32.322Z,27.56
2016-08-27T00:06:54.043Z,27.57
2016-08-27T00:07:15.758Z,27.43
2016-08-27T00:07:37.489Z,27.36
2016-08-27T00:07:59.218Z,27.40
2016-08-27T00:08:20.937Z,27.62
2016-08-27T00:08:42.798Z,27.63
2016-08-27T00:09:04.595Z,27.51
2016-08-27T00:09:26.321Z,27.57
2016-08-27T00:09:48.066Z,27.45
2016-08-27T00:10:09.796Z,27.49
2016-08-27T00:10:31.539Z,27.48
2016-08-27T00:10:53.278Z,27.39
2016-08-27T00:11:15.028Z,27.29
2016-08-27T00:11:36.796Z,27.30
2016-08-27T00:11:58.534Z,27.36
2016-08-27T00:12:20.256Z,27.50
2016-08-27T00:12:41.989Z,27.64
2016-08-27T00:13:03.713Z,27.69
2016-08-27T00:13:25.442Z,27.67
2016-08-27T00:13:47.190Z,27.70
2016-08-27T00:14:08.942Z,27.64
2016-08-27T00:14:30.718Z,27.47
2016-08-27T00:15:19.014Z,27.05
2016-08-27T00:15:40.732Z,27.04
2016-08-27T00:16:02.502Z,26.92
2016-08-27T00:16:24.246Z,26.84
2016-08-27T00:16:45.972Z,26.85
2016-08-27T00:17:07.708Z,26.80
2016-08-27T00:17:29.449Z,26.75
2016-08-27T00:17:51.173Z,26.65
2016-08-27T00:18:12.902Z,26.76
2016-08-27T00:18:34.802Z,26.75
2016-08-27T00:18:56.532Z,26.77
2016-08-27T00:19:18.249Z,26.75
2016-08-27T00:19:39.969Z,26.79
2016-08-27T00:20:01.693Z,26.87
2016-08-27T00:20:23.443Z,26.93
2016-08-27T00:20:45.168Z,27.09
2016-08-27T00:21:06.968Z,27.09
2016-08-27T00:21:28.698Z,27.18
2016-08-27T00:21:50.437Z,27.21
2016-08-27T00:22:12.168Z,27.21
2016-08-27T00:22:33.938Z,27.24
2016-08-27T00:22:55.658Z,27.33
2016-08-27T00:23:17.410Z,27.48
2016-08-27T00:23:39.186Z,27.58
2016-08-27T00:24:00.913Z,27.64
2016-08-27T00:24:22.634Z,27.57
2016-08-27T00:24:44.379Z,27.46
2016-08-27T00:25:06.104Z,27.46
2016-08-27T00:25:27.839Z,27.55
2016-08-27T00:25:49.570Z,27.55
2016-08-27T00:26:11.301Z,27.41
2016-08-27T00:26:33.029Z,27.48
2016-08-27T00:26:54.763Z,27.46
2016-08-27T00:27:16.511Z,27.49
2016-08-27T00:27:39.237Z,27.59
2016-08-27T00:28:06.730Z,27.40
2016-08-27T00:28:28.455Z,27.29
2016-08-27T00:28:50.244Z,27.19
2016-08-27T00:29:11.985Z,27.09
2016-08-27T00:29:33.729Z,26.96
2016-08-27T00:29:55.457Z,27.04
2016-08-27T00:30:17.233Z,27.10
2016-08-27T00:30:38.977Z,27.16
2016-08-27T00:31:00.723Z,27.06
2016-08-27T00:31:22.555Z,26.96
2016-08-27T00:31:44.328Z,26.87
2016-08-27T00:32:06.049Z,26.88
2016-08-27T00:32:27.816Z,26.84
2016-08-27T00:32:49.583Z,26.79
2016-08-27T00:33:11.393Z,26.69
2016-08-27T00:33:33.123Z,26.71
2016-08-27T00:33:54.849Z,26.70
2016-08-27T00:34:16.585Z,26.69
2016-08-27T00:34:38.323Z,26.67
2016-08-27T00:35:04.859Z,26.75
2016-08-27T00:35:26.595Z,26.81
2016-08-27T00:35:48.319Z,26.97
2016-08-27T00:36:10.055Z,27.07
2016-08-27T00:36:31.783Z,26.94
2016-08-27T00:36:53.554Z,26.88
2016-08-27T00:37:16.325Z,26.87
2016-08-27T00:37:38.042Z,27.00
2016-08-27T00:37:59.762Z,27.07
2016-08-27T00:38:21.484Z,27.01
2016-08-27T00:38:43.213Z,26.93
2016-08-27T00:39:05.112Z,26.75
2016-08-27T00:39:26.838Z,26.68
2016-08-27T00:39:48.629Z,26.78
2016-08-27T00:40:10.350Z,26.96
2016-08-27T00:40:32.069Z,27.01
2016-08-27T00:40:53.789Z,27.01
2016-08-27T00:41:15.509Z,27.11
2016-08-27T00:41:37.262Z,27.15
2016-08-27T00:41:59.003Z,27.28
2016-08-27T00:42:20.727Z,27.31
2016-08-27T00:42:42.465Z,27.21
2016-08-27T00:43:04.180Z,27.07
2016-08-27T00:43:25.928Z,26.90
2016-08-27T00:43:47.655Z,26.79
2016-08-27T00:44:09.391Z,26.69
2016-08-27T00:44:31.120Z,26.65
2016-08-27T00:44:52.847Z,26.68
2016-08-27T00:45:14.661Z,26.73
2016-08-27T00:45:36.416Z,26.90
2016-08-27T00:45:58.153Z,27.02
2016-08-27T00:46:19.908Z,26.98
2016-08-27T00:46:41.682Z,26.99
2016-08-27T00:47:03.398Z,27.08
2016-08-27T00:47:25.117Z,27.13
2016-08-27T00:47:46.880Z,27.24
2016-08-27T00:48:09.611Z,27.17
2016-08-27T00:48:31.392Z,27.07
2016-08-27T00:48:53.122Z,27.00
2016-08-27T00:49:14.853Z,26.90
2016-08-27T00:49:36.577Z,26.75
2016-08-27T00:49:58.341Z,26.76
2016-08-27T00:50:20.072Z,26.85
2016-08-27T00:50:41.791Z,26.96
2016-08-27T00:51:03.510Z,27.14
2016-08-27T00:51:25.247Z,27.21
2016-08-27T00:51:51.739Z,27.31
2016-08-27T00:52:13.464Z,27.28
2016-08-27T00:52:35.178Z,27.25
2016-08-27T00:52:56.904Z,27.27
2016-08-27T00:53:18.643Z,27.21
2016-08-27T00:53:40.355Z,27.21
2016-08-27T00:54:02.076Z,27.26
2016-08-27T00:54:23.797Z,27.27
2016-08-27T00:54:45.517Z,27.12
2016-08-27T00:55:07.239Z,27.10
2016-08-27T00:55:28.984Z,27.07
2016-08-27T00:55:50.725Z,27.01
2016-08-27T00:56:12.454Z,26.75
2016-08-27T00:56:34.190Z,26.60
2016-08-27T00:56:55.934Z,26.50
2016-08-27T00:57:17.701Z,26.65
2016-08-27T00:57:39.484Z,26.64
2016-08-27T00:58:01.207Z,26.50
2016-08-27T00:58:22.956Z,26.46
2016-08-27T00:58:44.673Z,26.32
2016-08-27T00:59:06.411Z,26.21
2016-08-27T00:59:28.169Z,26.16
2016-08-27T00:59:49.883Z,26.07
2016-08-27T01:00:11.612Z,26.13
2016-08-27T01:00:33.341Z,26.03
2016-08-27T01:00:55.085Z,26.04
2016-08-27T01:01:16.996Z,26.22
2016-08-27T01:01:38.786Z,26.51
2016-08-27T01:02:00.517Z,26.70
2016-08-27T01:02:22.235Z,26.64
2016-08-27T01:02:43.964Z,26.70
2016-08-27T01:03:05.683Z,26.79
2016-08-27T01:03:27.414Z,26.88
2016-08-27T01:03:49.138Z,26.96
2016-08-27T01:04:10.856Z,26.88
2016-08-27T01:04:32.577Z,26.84
2016-08-27T01:04:54.315Z,26.91
2016-08-27T01:05:16.034Z,27.00
2016-08-27T01:05:37.746Z,26.88
2016-08-27T01:05:59.497Z,26.90
2016-08-27T01:06:21.221Z,26.94
2016-08-27T01:06:42.940Z,26.99
2016-08-27T01:07:04.677Z,26.90
2016-08-27T01:07:26.415Z,26.88
2016-08-27T01:07:48.137Z,26.90
2016-08-27T01:08:09.868Z,27.00
2016-08-27T01:08:31.587Z,27.14
2016-08-27T01:08:53.375Z,26.89
2016-08-27T01:09:15.113Z,26.67
2016-08-27T01:09:36.834Z,26.41
2016-08-27T01:09:58.591Z,26.31
2016-08-27T01:10:20.316Z,26.27
2016-08-27T01:10:42.034Z,26.25
2016-08-27T01:11:03.777Z,26.28
2016-08-27T01:11:25.515Z,26.47
2016-08-27T01:11:47.254Z,26.58
2016-08-27T01:12:08.976Z,26.40
2016-08-27T01:12:30.717Z,26.37
2016-08-27T01:12:52.449Z,26.53
2016-08-27T01:13:14.171Z,26.70
2016-08-27T01:13:35.999Z,26.84
2016-08-27T01:13:57.713Z,26.90
2016-08-27T01:14:19.436Z,26.82
2016-08-27T01:14:41.165Z,26.80
2016-08-27T01:15:02.885Z,26.83
2016-08-27T01:15:24.620Z,26.81
2016-08-27T01:15:46.361Z,26.85
2016-08-27T01:16:08.085Z,26.83
2016-08-27T01:16:29.856Z,26.96
2016-08-27T01:16:51.589Z,26.96
2016-08-27T01:17:13.314Z,26.69
2016-08-27T01:17:35.059Z,26.56
2016-08-27T01:17:56.789Z,26.68
2016-08-27T01:18:18.515Z,26.74
2016-08-27T01:18:40.248Z,26.57
2016-08-27T01:19:01.993Z,26.70
2016-08-27T01:19:23.725Z,26.87
2016-08-27T01:19:45.455Z,26.88
2016-08-27T01:20:07.180Z,26.54
2016-08-27T01:20:28.945Z,26.27
2016-08-27T01:20:50.651Z,26.28
2016-08-27T01:21:12.376Z,26.42
2016-08-27T01:21:34.094Z,26.32
2016-08-27T01:21:55.811Z,26.10
2016-08-27T01:22:17.535Z,26.01
2016-08-27T01:22:39.287Z,26.05
2016-08-27T01:23:27.513Z,26.00
2016-08-27T01:23:49.280Z,25.98
2016-08-27T01:24:11.001Z,25.97
2016-08-27T01:24:32.724Z,26.05
2016-08-27T01:24:54.459Z,26.13
2016-08-27T01:25:16.191Z,26.26
2016-08-27T01:25:37.922Z,26.41
2016-08-27T01:25:59.650Z,26.51
2016-08-27T01:26:21.371Z,26.39
2016-08-27T01:26:43.129Z,26.30
2016-08-27T01:27:04.852Z,26.40
2016-08-27T01:27:26.581Z,26.63
2016-08-27T01:27:48.304Z,26.62
2016-08-27T01:28:10.191Z,26.44
2016-08-27T01:28:31.917Z,26.28
2016-08-27T01:28:53.682Z,26.19
2016-08-27T01:29:15.410Z,26.10
2016-08-27T01:29:37.139Z,26.06
2016-08-27T01:30:03.681Z,26.12
2016-08-27T01:30:25.491Z,25.99
2016-08-27T01:30:47.295Z,26.03
2016-08-27T01:31:09.093Z,26.23
2016-08-27T01:31:30.958Z,26.37
2016-08-27T01:31:52.666Z,26.51
2016-08-27T01:32:14.390Z,26.64
2016-08-27T01:32:36.109Z,26.75
2016-08-27T01:32:57.861Z,26.76
2016-08-27T01:33:19.634Z,26.78
2016-08-27T01:33:41.368Z,26.63
2016-08-27T01:34:03.095Z,26.33
2016-08-27T01:34:24.818Z,26.12
2016-08-27T01:34:46.540Z,26.14
2016-08-27T01:35:08.262Z,26.16
2016-08-27T01:35:29.980Z,26.14
2016-08-27T01:35:51.700Z,26.02
2016-08-27T01:36:13.426Z,26.02
2016-08-27T01:36:35.215Z,26.18
2016-08-27T01:36:56.938Z,26.24
2016-08-27T01:37:18.679Z,26.19
2016-08-27T01:37:40.418Z,26.07
2016-08-27T01:38:02.137Z,25.98
2016-08-27T01:38:23.856Z,25.96
2016-08-27T01:38:45.582Z,26.01
2016-08-27T01:39:07.356Z,26.05
2016-08-27T01:39:29.078Z,26.20
2016-08-27T01:39:50.911Z,26.36
2016-08-27T01:40:12.632Z,26.36
2016-08-27T01:40:34.369Z,26.53
2016-08-27T01:40:56.083Z,26.64
2016-08-27T01:41:17.813Z,26.76
2016-08-27T01:41:39.554Z,26.73
2016-08-27T01:42:01.285Z,26.73
2016-08-27T01:42:26.034Z,26.77
2016-08-27T01:42:48.753Z,26.77
2016-08-27T01:43:10.506Z,26.81
2016-08-27T01:43:32.237Z,26.67
2016-08-27T01:43:54.043Z,26.35
2016-08-27T01:44:15.790Z,26.20
2016-08-27T01:44:37.507Z,26.21
2016-08-27T01:44:59.290Z,26.21
2016-08-27T01:45:21.029Z,26.35
2016-08-27T01:45:42.760Z,26.49
2016-08-27T01:46:04.476Z,26.34
2016-08-27T01:46:26.198Z,26.18
2016-08-27T01:46:47.922Z,26.23
2016-08-27T01:47:09.655Z,26.25
2016-08-27T01:47:31.521Z,26.15
2016-08-27T01:47:53.235Z,26.28
2016-08-27T01:48:14.953Z,26.28
2016-08-27T01:48:36.674Z,26.41
2016-08-27T01:48:58.393Z,26.51
2016-08-27T01:49:20.117Z,26.46
2016-08-27T01:49:41.860Z,26.48
2016-08-27T01:50:03.583Z,26.41
2016-08-27T01:50:25.314Z,26.37
2016-08-27T01:50:47.039Z,26.24
2016-08-27T01:51:08.756Z,26.19
2016-08-27T01:51:30.469Z,26.06
2016-08-27T01:51:52.200Z,25.96
2016-08-27T01:52:13.919Z,25.84
2016-08-27T01:52:35.642Z,25.85
2016-08-27T01:52:57.375Z,26.07
2016-08-27T01:53:19.097Z,26.05
2016-08-27T01:53:40.820Z,26.14
2016-08-27T01:54:02.544Z,26.24
2016-08-27T01:54:24.326Z,26.03
2016-08-27T01:54:50.812Z,25.97
2016-08-27T01:55:12.564Z,25.91
2016-08-27T01:55:34.280Z,25.90
2016-08-27T01:55:56.004Z,25.99
2016-08-27T01:56:17.721Z,26.19
2016-08-27T01:56:39.439Z,26.37
2016-08-27T01:57:01.173Z,26.48
2016-08-27T01:57:22.956Z,26.49
2016-08-27T01:57:44.680Z,26.49
2016-08-27T01:58:06.399Z,26.43
2016-08-27T01:58:28.137Z,26.50
2016-08-27T01:58:49.869Z,26.26
2016-08-27T01:59:11.605Z,26.06
2016-08-27T01:59:33.345Z,25.94
2016-08-27T01:59:55.078Z,25.91
2016-08-27T02:00:16.792Z,26.02
2016-08-27T02:00:38.521Z,25.93
2016-08-27T02:01:05.008Z,25.81
2016-08-27T02:01:26.741Z,25.60
2016-08-27T02:01:48.462Z,25.49
2016-08-27T02:02:10.219Z,25.52
2016-08-27T02:02:31.986Z,25.41
2016-08-27T02:02:53.736Z,25.41
2016-08-27T02:03:15.460Z,25.35
2016-08-27T02:03:37.189Z,25.37
2016-08-27T02:03:58.911Z,25.57
2016-08-27T02:04:20.631Z,25.59
2016-08-27T02:04:42.349Z,25.55
2016-08-27T02:05:04.129Z,25.52
2016-08-27T02:05:25.844Z,25.53
2016-08-27T02:05:47.562Z,25.60
2016-08-27T02:06:09.291Z,25.57
2016-08-27T02:06:31.013Z,25.54
2016-08-27T02:06:52.744Z,25.58
2016-08-27T02:07:14.501Z,25.60
2016-08-27T02:07:36.226Z,25.67
2016-08-27T02:07:57.966Z,25.58
2016-08-27T02:08:24.463Z,25.54
2016-08-27T02:08:46.182Z,25.62
2016-08-27T02:09:07.911Z,25.63
2016-08-27T02:09:29.635Z,25.69
2016-08-27T02:09:51.355Z,25.66
2016-08-27T02:10:13.090Z,25.59
2016-08-27T02:10:34.812Z,25.54
2016-08-27T02:10:56.527Z,25.54
2016-08-27T02:11:18.273Z,25.41
2016-08-27T02:11:39.997Z,25.42
2016-08-27T02:12:01.722Z,25.43
2016-08-27T02:12:23.483Z,25.48
2016-08-27T02:12:45.233Z,25.57
2016-08-27T02:13:06.961Z,25.76
2016-08-27T02:13:28.683Z,26.02
2016-08-27T02:13:50.406Z,26.21
2016-08-27T02:14:12.130Z,26.24
2016-08-27T02:14:33.872Z,26.09
2016-08-27T02:14:55.627Z,25.94
2016-08-27T02:15:17.360Z,25.87
2016-08-27T02:15:39.078Z,25.89
2016-08-27T02:16:00.798Z,25.77
2016-08-27T02:16:22.520Z,25.83
2016-08-27T02:16:44.284Z,25.98
2016-08-27T02:17:05.990Z,26.12
2016-08-27T02:17:27.732Z,26.12
2016-08-27T02:17:49.481Z,25.87
2016-08-27T02:18:11.215Z,25.71
2016-08-27T02:18:32.943Z,25.70
2016-08-27T02:18:54.682Z,25.67
2016-08-27T02:19:16.405Z,25.62
2016-08-27T02:19:38.126Z,25.69
2016-08-27T02:19:59.847Z,25.71
2016-08-27T02:20:21.580Z,25.81
2016-08-27T02:20:43.313Z,25.99
2016-08-27T02:21:05.054Z,26.13
2016-08-27T02:21:26.808Z,26.22
2016-08-27T02:21:48.551Z,26.24
2016-08-27T02:22:10.274Z,26.35
2016-08-27T02:22:36.773Z,26.32
2016-08-27T02:22:58.505Z,26.15
2016-08-27T02:23:20.238Z,26.15
2016-08-27T02:23:46.734Z,25.93
2016-08-27T02:24:08.524Z,25.88
2016-08-27T02:24:30.235Z,25.95
2016-08-27T02:24:51.956Z,25.81
2016-08-27T02:25:13.718Z,25.96
2016-08-27T02:25:35.434Z,26.05
2016-08-27T02:25:57.168Z,26.12
2016-08-27T02:26:18.892Z,25.93
2016-08-27T02:26:40.670Z,25.83
2016-08-27T02:27:02.397Z,25.62
2016-08-27T02:27:24.114Z,25.70
2016-08-27T02:27:45.867Z,25.63
2016-08-27T02:28:07.591Z,25.59
2016-08-27T02:28:29.314Z,25.46
2016-08-27T02:28:51.040Z,25.48
2016-08-27T02:29:12.768Z,25.45
2016-08-27T02:29:34.502Z,25.44
2016-08-27T02:29:56.264Z,25.59
2016-08-27T02:30:18.015Z,25.70
2016-08-27T02:30:39.730Z,25.66
2016-08-27T02:31:01.447Z,25.79
2016-08-27T02:31:23.183Z,25.87
2016-08-27T02:31:44.907Z,25.89
2016-08-27T02:32:06.638Z,25.94
2016-08-27T02:32:28.369Z,25.84
2016-08-27T02:32:50.101Z,25.97
2016-08-27T02:33:11.847Z,25.97
2016-08-27T02:33:33.579Z,25.90
2016-08-27T02:33:55.308Z,25.91
2016-08-27T02:34:17.054Z,25.96
2016-08-27T02:34:38.777Z,26.09
2016-08-27T02:35:00.507Z,26.02
2016-08-27T02:35:22.324Z,25.83
2016-08-27T02:35:44.050Z,25.72
2016-08-27T02:36:05.777Z,25.73
2016-08-27T02:36:27.493Z,25.58
2016-08-27T02:36:49.216Z,25.51
2016-08-27T02:37:10.974Z,25.54
2016-08-27T02:37:37.489Z,25.57
2016-08-27T02:37:59.217Z,25.71
2016-08-27T02:38:20.956Z,25.88
2016-08-27T02:38:42.681Z,26.00
2016-08-27T02:39:04.425Z,25.85
2016-08-27T02:39:26.155Z,25.85
2016-08-27T02:39:47.916Z,25.96
2016-08-27T02:40:09.646Z,26.07
2016-08-27T02:40:31.364Z,26.15
2016-08-27T02:40:53.118Z,26.23
2016-08-27T02:41:14.861Z,26.26
2016-08-27T02:41:36.577Z,26.23
2016-08-27T02:41:58.294Z,26.09
2016-08-27T02:42:20.036Z,26.06
2016-08-27T02:42:41.755Z,25.94
2016-08-27T02:43:03.495Z,26.00
2016-08-27T02:43:25.212Z,25.76
2016-08-27T02:43:46.948Z,25.52
2016-08-27T02:44:08.786Z,25.61
2016-08-27T02:44:30.510Z,25.78
2016-08-27T02:44:52.236Z,25.64
2016-08-27T02:45:13.968Z,25.46
2016-08-27T02:45:35.700Z,25.40
2016-08-27T02:45:57.433Z,25.33
2016-08-27T02:46:19.154Z,25.29
2016-08-27T02:46:40.892Z,25.25
2016-08-27T02:47:02.628Z,25.22
2016-08-27T02:47:24.363Z,25.21
2016-08-27T02:47:46.114Z,25.20
2016-08-27T02:48:07.909Z,25.22
2016-08-27T02:48:29.634Z,25.29
2016-08-27T02:48:51.358Z,25.33
2016-08-27T02:49:13.089Z,25.45
2016-08-27T02:49:34.814Z,25.65
2016-08-27T02:49:56.593Z,25.71
2016-08-27T02:50:18.311Z,25.85
2016-08-27T02:50:40.033Z,25.56
2016-08-27T02:51:01.827Z,25.58
2016-08-27T02:51:28.312Z,25.59
2016-08-27T02:51:54.810Z,25.51
2016-08-27T02:52:16.533Z,25.68
2016-08-27T02:52:38.270Z,25.72
2016-08-27T02:53:00.001Z,25.69
2016-08-27T02:53:21.731Z,25.81
2016-08-27T02:53:43.455Z,25.92
2016-08-27T02:54:09.941Z,25.90
2016-08-27T02:54:31.673Z,25.89
2016-08-27T02:54:53.431Z,25.99
2016-08-27T02:55:15.187Z,26.00
2016-08-27T02:55:36.951Z,26.02
2016-08-27T02:55:58.689Z,26.03
2016-08-27T02:56:20.427Z,26.09
2016-08-27T02:56:42.159Z,26.10
2016-08-27T02:57:03.892Z,26.16
2016-08-27T02:57:25.608Z,26.08
2016-08-27T02:57:47.327Z,26.03
2016-08-27T02:58:09.048Z,26.09
2016-08-27T02:58:30.807Z,26.05
2016-08-27T02:58:52.542Z,26.04
2016-08-27T02:59:14.255Z,25.89
2016-08-27T02:59:35.979Z,25.88
2016-08-27T02:59:57.713Z,25.82
2016-08-27T03:00:45.941Z,25.61
2016-08-27T03:01:07.678Z,25.44
2016-08-27T03:01:29.414Z,25.46
2016-08-27T03:01:51.143Z,25.70
2016-08-27T03:02:12.862Z,25.72
2016-08-27T03:02:34.591Z,25.76
2016-08-27T03:02:56.312Z,25.77
2016-08-27T03:03:18.093Z,25.69
2016-08-27T03:03:39.812Z,25.72
2016-08-27T03:04:01.533Z,25.55
2016-08-27T03:04:23.259Z,25.44
2016-08-27T03:04:44.971Z,25.39
2016-08-27T03:05:06.700Z,25.38
2016-08-27T03:05:28.421Z,25.50
2016-08-27T03:05:50.162Z,25.67
2016-08-27T03:06:11.879Z,25.86
2016-08-27T03:06:33.597Z,25.97
2016-08-27T03:06:55.337Z,25.76
2016-08-27T03:07:17.067Z,25.62
2016-08-27T03:07:38.788Z,25.62
2016-08-27T03:08:00.513Z,25.64
2016-08-27T03:08:22.286Z,25.63
2016-08-27T03:08:44.018Z,25.50
2016-08-27T03:09:05.743Z,25.62
2016-08-27T03:09:27.473Z,25.73
2016-08-27T03:09:49.195Z,25.80
2016-08-27T03:10:15.685Z,25.81
2016-08-27T03:10:37.422Z,25.77
2016-08-27T03:10:59.188Z,25.86
2016-08-27T03:11:21.039Z,25.66
2016-08-27T03:11:42.778Z,25.37
2016-08-27T03:12:04.498Z,25.27
2016-08-27T03:12:26.238Z,25.15
2016-08-27T03:12:47.985Z,25.13
2016-08-27T03:13:09.711Z,25.17
2016-08-27T03:13:31.479Z,25.32
2016-08-27T03:13:53.201Z,25.30
2016-08-27T03:14:15.131Z,25.52
2016-08-27T03:14:36.862Z,25.68
2016-08-27T03:14:59.636Z,25.74
2016-08-27T03:15:22.347Z,25.76
2016-08-27T03:15:44.066Z,25.78
2016-08-27T03:16:06.791Z,25.88
2016-08-27T03:16:28.514Z,25.95
2016-08-27T03:16:50.346Z,25.98
2016-08-27T03:17:12.069Z,25.95
2016-08-27T03:17:33.808Z,26.02
2016-08-27T03:17:55.539Z,26.06
2016-08-27T03:18:17.259Z,26.14
2016-08-27T03:18:38.983Z,25.86
2016-08-27T03:19:00.704Z,25.62
2016-08-27T03:19:22.430Z,25.49
2016-08-27T03:19:44.165Z,25.42
2016-08-27T03:20:05.889Z,25.42
2016-08-27T03:20:27.621Z,25.38
2016-08-27T03:20:49.368Z,25.55
2016-08-27T03:21:11.093Z,25.72
2016-08-27T03:21:32.914Z,25.86
2016-08-27T03:21:54.643Z,25.85
2016-08-27T03:22:16.380Z,25.85
2016-08-27T03:22:38.097Z,25.57
2016-08-27T03:23:00.830Z,25.38
2016-08-27T03:23:22.607Z,25.36
2016-08-27T03:23:44.332Z,25.36
2016-08-27T03:24:06.053Z,25.40
2016-08-27T03:24:27.773Z,25.37
2016-08-27T03:24:49.501Z,25.27
2016-08-27T03:25:11.227Z,25.21
2016-08-27T03:25:32.946Z,25.26
2016-08-27T03:25:54.669Z,25.42
2016-08-27T03:26:16.469Z,25.52
2016-08-27T03:26:38.238Z,25.51
2016-08-27T03:26:59.963Z,25.44
2016-08-27T03:27:21.699Z,25.35
2016-08-27T03:27:43.435Z,25.27
2016-08-27T03:28:05.179Z,25.13
2016-08-27T03:28:26.898Z,25.05
2016-08-27T03:28:48.625Z,24.93
2016-08-27T03:29:10.379Z,24.82
2016-08-27T03:29:32.104Z,24.72
2016-08-27T03:29:53.830Z,24.75
2016-08-27T03:30:16.556Z,24.78
2016-08-27T03:30:38.275Z,24.75
2016-08-27T03:31:00.001Z,24.76
2016-08-27T03:31:21.729Z,24.80
2016-08-27T03:31:43.444Z,24.79
2016-08-27T03:32:05.172Z,24.87
2016-08-27T03:32:26.903Z,24.87
2016-08-27T03:32:48.624Z,24.84
2016-08-27T03:33:10.353Z,24.90
2016-08-27T03:33:32.091Z,25.04
2016-08-27T03:33:53.804Z,25.04
2016-08-27T03:34:15.531Z,25.03
2016-08-27T03:34:37.262Z,25.06
2016-08-27T03:34:58.993Z,25.23
2016-08-27T03:35:20.755Z,25.43
2016-08-27T03:35:42.479Z,25.51
2016-08-27T03:36:04.209Z,25.60
2016-08-27T03:36:25.929Z,25.67
2016-08-27T03:36:47.653Z,25.54
2016-08-27T03:37:09.369Z,25.43
2016-08-27T03:37:31.095Z,25.24
2016-08-27T03:37:52.814Z,25.09
2016-08-27T03:38:14.540Z,25.05
2016-08-27T03:38:36.261Z,24.93
2016-08-27T03:38:57.999Z,24.90
2016-08-27T03:39:19.728Z,24.86
2016-08-27T03:39:41.470Z,25.12
2016-08-27T03:40:03.264Z,25.31
2016-08-27T03:40:24.998Z,25.36
2016-08-27T03:40:51.492Z,25.27
2016-08-27T03:41:13.218Z,25.31
2016-08-27T03:41:34.958Z,25.39
2016-08-27T03:41:56.689Z,25.51
2016-08-27T03:42:18.405Z,25.44
2016-08-27T03:42:40.147Z,25.57
2016-08-27T03:43:01.874Z,25.52
2016-08-27T03:43:23.598Z,25.47
2016-08-27T03:43:45.455Z,25.64
2016-08-27T03:44:07.195Z,25.69
2016-08-27T03:44:28.929Z,25.70
2016-08-27T03:44:50.647Z,25.73
2016-08-27T03:45:12.377Z,25.67
2016-08-27T03:45:34.185Z,25.39
2016-08-27T03:45:55.912Z,25.24
2016-08-27T03:46:17.635Z,25.07
2016-08-27T03:46:39.393Z,25.02
2016-08-27T03:47:01.099Z,24.87
2016-08-27T03:47:22.837Z,24.86
2016-08-27T03:47:44.650Z,24.81
2016-08-27T03:48:06.425Z,24.64
2016-08-27T03:48:28.142Z,24.55
2016-08-27T03:48:49.876Z,24.55
2016-08-27T03:49:11.593Z,24.68
2016-08-27T03:49:33.329Z,24.81
2016-08-27T03:49:55.078Z,24.86
2016-08-27T03:50:16.811Z,24.90
2016-08-27T03:50:38.542Z,25.01
2016-08-27T03:51:00.263Z,24.96
2016-08-27T03:51:21.986Z,24.93
2016-08-27T03:51:43.707Z,24.94
2016-08-27T03:52:05.430Z,25.02
2016-08-27T03:52:27.156Z,25.16
2016-08-27T03:52:48.904Z,25.15
2016-08-27T03:53:10.622Z,25.23
2016-08-27T03:53:32.345Z,25.31
2016-08-27T03:53:54.062Z,25.13
2016-08-27T03:54:15.912Z,24.94
2016-08-27T03:54:37.651Z,24.77
2016-08-27T03:54:59.410Z,24.73
2016-08-27T03:55:21.128Z,24.73
2016-08-27T03:55:42.857Z,24.68
2016-08-27T03:56:04.571Z,24.60
2016-08-27T03:56:26.307Z,24.68
2016-08-27T03:56:48.077Z,24.88
2016-08-27T03:57:09.799Z,24.96
2016-08-27T03:57:31.522Z,24.90
2016-08-27T03:57:53.242Z,24.97
2016-08-27T03:58:14.960Z,24.82
2016-08-27T03:58:36.712Z,24.69
2016-08-27T03:58:58.440Z,24.57
2016-08-27T03:59:20.158Z,24.46
2016-08-27T03:59:41.893Z,24.49
2016-08-27T04:00:03.611Z,24.45
2016-08-27T04:00:25.338Z,24.52
2016-08-27T04:00:47.074Z,24.54
2016-08-27T04:01:08.810Z,24.54
2016-08-27T04:01:35.470Z,24.52
2016-08-27T04:01:57.245Z,24.56
2016-08-27T04:02:18.981Z,24.69
2016-08-27T04:02:40.712Z,24.65
2016-08-27T04:03:02.445Z,24.60
2016-08-27T04:03:24.162Z,24.69
2016-08-27T04:03:45.886Z,24.62
2016-08-27T04:04:07.618Z,24.59
2016-08-27T04:04:29.370Z,24.60
2016-08-27T04:04:51.086Z,24.67
2016-08-27T04:05:12.815Z,24.76
2016-08-27T04:05:34.555Z,24.76
2016-08-27T04:05:56.344Z,24.75
2016-08-27T04:06:18.107Z,24.88
2016-08-27T04:06:39.845Z,25.00
2016-08-27T04:07:01.572Z,24.86
2016-08-27T04:07:23.305Z,24.85
2016-08-27T04:07:45.023Z,24.83
2016-08-27T04:08:06.742Z,24.92
2016-08-27T04:08:28.475Z,24.91
2016-08-27T04:08:50.234Z,24.87
2016-08-27T04:09:11.953Z,24.87
2016-08-27T04:09:33.668Z,24.88
2016-08-27T04:09:55.404Z,24.97
2016-08-27T04:10:17.122Z,24.90
2016-08-27T04:10:38.869Z,24.90
2016-08-27T04:11:00.591Z,24.81
2016-08-27T04:11:22.311Z,24.86
2016-08-27T04:11:44.050Z,24.68
2016-08-27T04:12:05.772Z,24.59
2016-08-27T04:12:27.509Z,24.57
2016-08-27T04:12:49.262Z,24.52
2016-08-27T04:13:10.984Z,24.45
2016-08-27T04:13:32.703Z,24.43
2016-08-27T04:13:54.427Z,24.45
2016-08-27T04:14:16.165Z,24.61
2016-08-27T04:14:37.890Z,24.75
2016-08-27T04:14:59.627Z,24.79
2016-08-27T04:15:21.333Z,25.03
2016-08-27T04:15:43.063Z,25.15
2016-08-27T04:16:04.786Z,25.24
2016-08-27T04:16:26.503Z,25.36
2016-08-27T04:16:48.224Z,25.41
2016-08-27T04:17:09.961Z,25.43
2016-08-27T04:17:31.685Z,25.41
2016-08-27T04:17:53.410Z,25.33
2016-08-27T04:18:15.137Z,25.20
2016-08-27T04:18:36.859Z,25.05
2016-08-27T04:18:58.582Z,24.94
2016-08-27T04:19:20.317Z,24.90
2016-08-27T04:19:42.041Z,24.91
2016-08-27T04:20:03.763Z,24.86
2016-08-27T04:20:25.481Z,24.76
2016-08-27T04:20:47.201Z,24.79
2016-08-27T04:21:08.965Z,24.91
2016-08-27T04:21:30.688Z,25.08
2016-08-27T04:21:52.407Z,25.19
2016-08-27T04:22:14.130Z,25.26
2016-08-27T04:22:35.852Z,25.20
2016-08-27T04:22:57.574Z,25.11
2016-08-27T04:23:19.322Z,24.91
2016-08-27T04:23:41.043Z,25.10
2016-08-27T04:24:02.773Z,25.15
2016-08-27T04:24:24.498Z,24.93
2016-08-27T04:24:46.223Z,24.76
2016-08-27T04:25:07.951Z,24.61
2016-08-27T04:25:29.679Z,24.52
2016-08-27T04:25:51.401Z,24.57
2016-08-27T04:26:13.118Z,24.73
2016-08-27T04:26:34.837Z,24.94
2016-08-27T04:26:56.565Z,25.01
2016-08-27T04:27:18.287Z,25.11
2016-08-27T04:27:42.800Z,25.16
2016-08-27T04:28:09.303Z,24.87
2016-08-27T04:28:31.032Z,24.63
2016-08-27T04:28:52.765Z,24.49
2016-08-27T04:29:15.478Z,24.37
2016-08-27T04:29:37.206Z,24.22
2016-08-27T04:29:58.917Z,24.21
2016-08-27T04:30:20.648Z,24.21
2016-08-27T04:30:42.366Z,24.19
2016-08-27T04:31:04.097Z,24.13
2016-08-27T04:31:57.071Z,24.26
2016-08-27T04:32:18.785Z,24.27
2016-08-27T04:32:40.504Z,24.25
2016-08-27T04:33:05.096Z,24.25
2016-08-27T04:33:26.814Z,24.19
2016-08-27T04:33:48.529Z,24.20
2016-08-27T04:34:10.258Z,24.18
2016-08-27T04:34:32.046Z,24.10
2016-08-27T04:34:53.762Z,24.05
2016-08-27T04:35:15.495Z,24.04
2016-08-27T04:35:37.265Z,24.21
2016-08-27T04:35:58.994Z,24.37
2016-08-27T04:36:20.817Z,24.59
2016-08-27T04:36:42.533Z,24.79
2016-08-27T04:37:04.248Z,24.90
2016-08-27T04:37:25.974Z,24.96
2016-08-27T04:37:48.693Z,24.85
2016-08-27T04:38:10.405Z,24.56
2016-08-27T04:38:32.197Z,24.35
2016-08-27T04:38:53.908Z,24.21
2016-08-27T04:39:15.627Z,24.22
2016-08-27T04:39:37.343Z,24.17
2016-08-27T04:39:59.057Z,24.23
2016-08-27T04:40:20.785Z,24.30
2016-08-27T04:40:42.512Z,24.52
2016-08-27T04:41:04.246Z,24.37
2016-08-27T04:41:25.970Z,24.33
2016-08-27T04:41:47.689Z,24.27
2016-08-27T04:42:09.405Z,24.36
2016-08-27T04:42:31.142Z,24.48
2016-08-27T04:42:52.867Z,24.55
2016-08-27T04:43:14.594Z,24.46